createdAt,value
2018-09-01T00:01:07.374Z,10.90
2018-09-01T00:03:35.235Z,12.00
2018-09-01T00:06:02.832Z,11.93
2018-09-01T00:08:30.442Z,12.50
2018-09-01T00:10:58.100Z,12.10
2018-09-01T00:13:26.009Z,12.97
2018-09-01T00:15:53.669Z,13.17
2018-09-01T00:18:21.315Z,12.83
2018-09-01T00:20:48.857Z,12.87
2018-09-01T00:23:16.397Z,12.93
2018-09-01T00:25:44.055Z,12.13
2018-09-01T00:28:11.630Z,14.10
2018-09-01T00:30:39.310Z,12.53
2018-09-01T00:33:06.852Z,14.03
2018-09-01T00:35:34.397Z,11.90
2018-09-01T00:38:07.531Z,13.90
2018-09-01T00:40:35.391Z,13.67
2018-09-01T00:43:03.024Z,13.47
2018-09-01T00:45:30.961Z,12.80
2018-09-01T00:47:58.494Z,14.93
2018-09-01T00:50:26.132Z,14.17
2018-09-01T00:52:53.732Z,14.73
2018-09-01T00:55:26.864Z,14.00
2018-09-01T00:57:54.776Z,16.07
2018-09-01T01:00:22.744Z,14.30
2018-09-01T01:02:51.017Z,14.83
2018-09-01T01:05:18.644Z,15.10
2018-09-01T01:07:46.215Z,14.27
2018-09-01T01:10:13.751Z,14.73
2018-09-01T01:12:41.439Z,14.27
2018-09-01T01:15:09.714Z,14.60
2018-09-01T01:17:37.470Z,13.70
2018-09-01T01:20:05.471Z,13.93
2018-09-01T01:22:33.045Z,16.90
2018-09-01T01:25:00.598Z,14.93
2018-09-01T01:27:28.236Z,14.57
2018-09-01T01:29:55.860Z,13.90
2018-09-01T01:32:23.476Z,14.40
2018-09-01T01:34:51.104Z,13.90
2018-09-01T01:37:18.755Z,14.33
2018-09-01T01:39:46.279Z,14.20
2018-09-01T01:42:13.890Z,15.03
2018-09-01T01:44:41.447Z,16.53
2018-09-01T01:47:09.123Z,13.07
2018-09-01T01:49:36.756Z,13.30
2018-09-01T01:52:04.568Z,14.77
2018-09-01T01:54:32.152Z,14.93
2018-09-01T01:56:59.675Z,13.80
2018-09-01T01:59:27.315Z,14.13
2018-09-01T02:01:54.995Z,14.97
2018-09-01T02:04:22.600Z,15.10
2018-09-01T02:06:50.141Z,14.30
2018-09-01T02:09:17.643Z,15.60
2018-09-01T02:11:45.322Z,13.80
2018-09-01T02:14:13.034Z,15.00
2018-09-01T02:16:40.628Z,13.53
2018-09-01T02:19:08.248Z,14.47
2018-09-01T02:21:36.820Z,14.97
2018-09-01T02:24:04.467Z,14.77
2018-09-01T02:26:32.191Z,13.50
2018-09-01T02:28:59.749Z,15.00
2018-09-01T02:31:27.771Z,15.00
2018-09-01T02:33:55.740Z,14.73
2018-09-01T02:36:23.431Z,13.27
2018-09-01T02:38:51.043Z,14.57
2018-09-01T02:41:18.709Z,13.00
2018-09-01T02:43:46.332Z,14.70
2018-09-01T02:46:14.035Z,14.50
2018-09-01T02:48:41.688Z,15.23
2018-09-01T02:51:09.876Z,14.07
2018-09-01T02:53:37.677Z,15.10
2018-09-01T02:56:05.674Z,14.87
2018-09-01T02:58:33.276Z,14.10
2018-09-01T03:01:06.572Z,14.13
2018-09-01T03:03:34.392Z,15.10
2018-09-01T03:06:02.137Z,14.73
2018-09-01T03:08:29.799Z,13.70
2018-09-01T03:10:57.424Z,15.23
2018-09-01T03:13:25.000Z,14.73
2018-09-01T03:15:52.570Z,15.03
2018-09-01T03:18:20.085Z,16.30
2018-09-01T03:20:47.701Z,15.33
2018-09-01T03:23:15.316Z,14.20
2018-09-01T03:25:43.201Z,14.27
2018-09-01T03:28:10.960Z,15.00
2018-09-01T03:30:38.481Z,14.90
2018-09-01T03:33:06.127Z,15.13
2018-09-01T03:35:33.729Z,14.90
2018-09-01T03:38:01.511Z,15.33
2018-09-01T03:40:29.161Z,13.53
2018-09-01T03:42:56.782Z,14.80
2018-09-01T03:45:24.292Z,15.00
2018-09-01T03:47:52.730Z,13.37
2018-09-01T03:50:20.277Z,12.70
2018-09-01T03:52:47.978Z,13.67
2018-09-01T03:55:15.645Z,12.70
2018-09-01T03:57:43.259Z,12.43
2018-09-01T04:00:10.883Z,14.27
2018-09-01T04:02:38.518Z,12.53
2018-09-01T04:05:06.603Z,13.37
2018-09-01T04:07:34.258Z,13.00
2018-09-01T04:10:02.256Z,13.40
2018-09-01T04:12:29.801Z,12.40
2018-09-01T04:14:57.439Z,13.60
2018-09-01T04:17:25.220Z,11.83
2018-09-01T04:19:52.752Z,13.33
2018-09-01T04:22:20.458Z,12.23
2018-09-01T04:24:48.000Z,11.77
2018-09-01T04:27:15.670Z,13.07
2018-09-01T04:29:43.317Z,12.90
2018-09-01T04:32:11.050Z,12.80
2018-09-01T04:34:38.604Z,13.03
2018-09-01T04:37:06.171Z,12.57
2018-09-01T04:39:33.848Z,11.10
2018-09-01T04:42:01.528Z,12.43
2018-09-01T04:44:29.152Z,11.40
2018-09-01T04:46:56.778Z,12.63
2018-09-01T04:49:24.392Z,12.50
2018-09-01T04:51:51.880Z,12.10
2018-09-01T04:54:19.743Z,12.10
2018-09-01T04:56:47.399Z,11.10
2018-09-01T04:59:14.927Z,10.10
2018-09-01T05:01:42.467Z,12.00
2018-09-01T05:04:10.102Z,11.40
2018-09-01T05:06:37.761Z,8.67
2018-09-01T05:09:06.731Z,11.47
2018-09-01T05:11:34.299Z,9.73
2018-09-01T05:14:01.947Z,8.50
2018-09-01T05:16:29.642Z,11.03
2018-09-01T05:18:57.307Z,9.30
2018-09-01T05:21:24.946Z,9.90
2018-09-01T05:23:52.798Z,9.93
2018-09-01T05:26:20.436Z,11.20
2018-09-01T05:28:48.193Z,11.53
2018-09-01T05:31:15.803Z,10.47
2018-09-01T05:33:43.510Z,10.70
2018-09-01T05:36:11.147Z,10.50
2018-09-01T05:38:38.978Z,9.03
2018-09-01T05:41:06.760Z,9.17
2018-09-01T05:43:34.444Z,9.30
2018-09-01T05:46:02.169Z,9.63
2018-09-01T05:48:29.707Z,9.87
2018-09-01T05:50:57.381Z,8.70
2018-09-01T05:53:24.928Z,10.30
2018-09-01T05:55:52.630Z,8.80
2018-09-01T05:58:20.248Z,9.53
2018-09-01T06:00:49.137Z,9.23
2018-09-01T06:03:17.251Z,8.47
2018-09-01T06:05:45.338Z,8.60
2018-09-01T06:08:12.878Z,9.40
2018-09-01T06:10:40.436Z,9.13
2018-09-01T06:13:07.975Z,8.17
2018-09-01T06:15:35.655Z,7.20
2018-09-01T06:18:03.526Z,9.10
2018-09-01T06:20:31.096Z,7.90
2018-09-01T06:22:58.743Z,6.90
2018-09-01T06:25:26.401Z,7.07
2018-09-01T06:27:56.189Z,7.23
2018-09-01T06:30:30.431Z,6.00
2018-09-01T06:32:58.487Z,6.97
2018-09-01T06:35:26.070Z,7.10
2018-09-01T06:37:53.683Z,6.00
2018-09-01T06:40:21.250Z,7.03
2018-09-01T06:42:48.803Z,6.70
2018-09-01T06:45:16.415Z,5.70
2018-09-01T06:47:43.975Z,5.47
2018-09-01T06:50:11.593Z,5.10
2018-09-01T06:52:39.391Z,5.63
2018-09-01T06:55:07.172Z,4.70
2018-09-01T06:57:34.737Z,4.90
2018-09-01T07:00:02.714Z,8.93
2018-09-01T07:02:30.364Z,5.57
2018-09-01T07:04:57.902Z,9.20
2018-09-01T07:07:25.523Z,4.60
2018-09-01T07:09:53.278Z,4.60
2018-09-01T07:12:20.877Z,4.80
2018-09-01T07:14:48.511Z,7.07
2018-09-01T07:17:16.128Z,4.37
2018-09-01T07:19:43.852Z,4.83
2018-09-01T07:22:11.334Z,10.30
2018-09-01T07:24:39.130Z,4.07
2018-09-01T07:27:06.860Z,3.30
2018-09-01T07:29:34.431Z,3.43
2018-09-01T07:32:01.988Z,3.90
2018-09-01T07:34:29.639Z,3.33
2018-09-01T07:36:57.186Z,4.43
2018-09-01T07:39:24.748Z,4.10
2018-09-01T07:41:52.574Z,4.37
2018-09-01T07:44:20.185Z,4.10
2018-09-01T07:46:47.867Z,3.30
2018-09-01T07:49:15.397Z,3.60
2018-09-01T07:51:42.946Z,3.83
2018-09-01T07:54:10.486Z,6.77
2018-09-01T07:56:38.120Z,3.70
2018-09-01T07:59:05.780Z,3.60
2018-09-01T08:01:33.379Z,3.47
2018-09-01T08:04:01.187Z,4.03
2018-09-01T08:06:28.885Z,4.33
2018-09-01T08:08:56.495Z,2.70
2018-09-01T08:11:24.156Z,3.63
2018-09-01T08:13:51.663Z,3.27
2018-09-01T08:16:19.428Z,2.83
2018-09-01T08:18:47.040Z,3.00
2018-09-01T08:21:14.621Z,3.00
2018-09-01T08:23:42.153Z,3.10
2018-09-01T08:26:10.181Z,3.00
2018-09-01T08:28:37.608Z,3.23
2018-09-01T08:31:05.191Z,3.40
2018-09-01T08:33:33.100Z,2.40
2018-09-01T08:36:00.683Z,1.93
2018-09-01T08:38:28.294Z,2.10
2018-09-01T08:40:55.901Z,2.80
2018-09-01T08:43:23.584Z,2.63
2018-09-01T08:45:51.145Z,2.50
2018-09-01T08:48:18.975Z,2.40
2018-09-01T08:50:46.572Z,2.70
2018-09-01T08:53:14.465Z,2.80
2018-09-01T08:55:42.398Z,3.10
2018-09-01T08:58:10.075Z,3.10
2018-09-01T09:00:37.692Z,2.77
2018-09-01T09:03:05.617Z,2.33
2018-09-01T09:05:33.297Z,2.10
2018-09-01T09:08:00.948Z,1.80
2018-09-01T09:10:28.690Z,2.30
2018-09-01T09:12:56.666Z,2.00
2018-09-01T09:15:24.316Z,2.10
2018-09-01T09:17:52.310Z,1.83
2018-09-01T09:20:20.064Z,2.43
2018-09-01T09:22:47.840Z,2.30
2018-09-01T09:25:15.865Z,2.10
2018-09-01T09:27:43.464Z,2.13
2018-09-01T09:30:11.149Z,2.20
2018-09-01T09:32:38.735Z,2.30
2018-09-01T09:35:06.296Z,2.07
2018-09-01T09:37:34.111Z,2.80
2018-09-01T09:40:01.795Z,2.23
2018-09-01T09:42:29.399Z,2.83
2018-09-01T09:44:57.095Z,2.23
2018-09-01T09:47:24.765Z,1.47
2018-09-01T09:49:52.381Z,1.70
2018-09-01T09:52:20.066Z,2.27
2018-09-01T09:54:47.898Z,1.70
2018-09-01T09:57:15.544Z,2.30
2018-09-01T09:59:43.168Z,2.27
2018-09-01T10:02:10.684Z,1.73
2018-09-01T10:04:38.214Z,1.73
2018-09-01T10:07:05.791Z,1.43
2018-09-01T10:09:33.382Z,1.40
2018-09-01T10:12:00.934Z,1.80
2018-09-01T10:14:28.476Z,2.10
2018-09-01T10:16:56.284Z,1.67
2018-09-01T10:19:23.951Z,1.40
2018-09-01T10:21:51.491Z,2.13
2018-09-01T10:24:19.229Z,1.90
2018-09-01T10:26:46.987Z,2.07
2018-09-01T10:29:14.587Z,1.60
2018-09-01T10:31:42.216Z,1.43
2018-09-01T10:34:09.785Z,2.10
2018-09-01T10:36:37.588Z,1.70
2018-09-01T10:39:07.853Z,2.20
2018-09-01T10:41:35.642Z,1.60
2018-09-01T10:44:03.483Z,1.80
2018-09-01T10:46:31.097Z,1.90
2018-09-01T10:48:58.878Z,1.97
2018-09-01T10:51:26.641Z,1.90
2018-09-01T10:53:54.287Z,1.73
2018-09-01T10:56:21.952Z,2.27
2018-09-01T10:58:49.674Z,2.20
2018-09-01T11:01:17.247Z,1.73
2018-09-01T11:03:45.083Z,2.73
2018-09-01T11:06:12.800Z,2.10
2018-09-01T11:08:40.459Z,2.27
2018-09-01T11:11:08.364Z,1.77
2018-09-01T11:13:35.996Z,1.50
2018-09-01T11:16:03.770Z,1.70
2018-09-01T11:18:31.418Z,1.80
2018-09-01T11:20:59.222Z,2.50
2018-09-01T11:23:26.754Z,2.47
2018-09-01T11:25:54.405Z,2.93
2018-09-01T11:28:22.040Z,3.30
2018-09-01T11:30:49.786Z,2.40
2018-09-01T11:33:17.396Z,2.50
2018-09-01T11:35:45.075Z,3.10
2018-09-01T11:38:12.823Z,2.20
2018-09-01T11:40:40.582Z,2.47
2018-09-01T11:43:08.376Z,1.93
2018-09-01T11:45:35.810Z,1.57
2018-09-01T11:48:03.509Z,1.60
2018-09-01T11:50:31.085Z,7.80
2018-09-01T11:52:58.779Z,2.90
2018-09-01T11:55:26.297Z,2.90
2018-09-01T11:57:53.923Z,2.10
2018-09-01T12:00:21.788Z,2.63
2018-09-01T12:02:49.770Z,2.07
2018-09-01T12:05:17.407Z,1.50
2018-09-01T12:07:45.206Z,2.13
2018-09-01T12:10:12.800Z,1.63
2018-09-01T12:12:40.308Z,1.90
2018-09-01T12:15:07.944Z,1.70
2018-09-01T12:17:35.613Z,1.63
2018-09-01T12:20:03.198Z,1.43
2018-09-01T12:22:30.900Z,2.17
2018-09-01T12:24:58.498Z,2.07
2018-09-01T12:27:26.208Z,1.50
2018-09-01T12:29:53.849Z,1.60
2018-09-01T12:32:21.503Z,1.63
2018-09-01T12:34:49.389Z,1.70
2018-09-01T12:37:17.050Z,1.80
2018-09-01T12:39:44.713Z,2.00
2018-09-01T12:42:12.472Z,1.30
2018-09-01T12:44:40.213Z,1.53
2018-09-01T12:47:08.174Z,1.37
2018-09-01T12:49:36.094Z,1.50
2018-09-01T12:52:03.747Z,1.90
2018-09-01T12:54:31.409Z,2.10
2018-09-01T12:56:59.137Z,1.53
2018-09-01T12:59:26.831Z,1.77
2018-09-01T13:01:54.519Z,2.33
2018-09-01T13:04:22.183Z,1.63
2018-09-01T13:06:49.817Z,1.73
2018-09-01T13:09:17.375Z,1.73
2018-09-01T13:11:44.940Z,1.53
2018-09-01T13:14:12.579Z,1.63
2018-09-01T13:16:40.155Z,2.00
2018-09-01T13:19:07.715Z,1.20
2018-09-01T13:21:35.298Z,1.67
2018-09-01T13:24:02.881Z,1.10
2018-09-01T13:26:30.455Z,1.43
2018-09-01T13:28:58.122Z,1.90
2018-09-01T13:31:25.994Z,1.40
2018-09-01T13:33:53.766Z,1.40
2018-09-01T13:36:21.612Z,1.47
2018-09-01T13:38:49.268Z,1.47
2018-09-01T13:41:16.754Z,1.43
2018-09-01T13:43:44.313Z,1.40
2018-09-01T13:46:12.077Z,2.07
2018-09-01T13:48:39.761Z,1.63
2018-09-01T13:51:07.633Z,1.17
2018-09-01T13:53:35.508Z,1.30
2018-09-01T13:56:03.130Z,1.70
2018-09-01T13:58:30.797Z,1.77
2018-09-01T14:00:58.555Z,1.40
2018-09-01T14:03:26.363Z,1.73
2018-09-01T14:05:54.102Z,1.63
2018-09-01T14:08:21.777Z,1.50
2018-09-01T14:10:49.607Z,1.40
2018-09-01T14:13:18.099Z,1.90
2018-09-01T14:15:45.891Z,1.57
2018-09-01T14:18:13.689Z,2.37
2018-09-01T14:20:41.280Z,2.00
2018-09-01T14:23:08.854Z,1.77
2018-09-01T14:25:36.892Z,1.20
2018-09-01T14:28:04.717Z,1.70
2018-09-01T14:30:33.014Z,2.23
2018-09-01T14:33:00.718Z,1.80
2018-09-01T14:35:28.214Z,1.53
2018-09-01T14:37:55.776Z,1.60
2018-09-01T14:40:23.289Z,1.67
2018-09-01T14:42:50.916Z,1.27
2018-09-01T14:45:18.547Z,1.07
2018-09-01T14:47:46.203Z,1.87
2018-09-01T14:50:13.864Z,1.50
2018-09-01T14:52:41.484Z,2.30
2018-09-01T14:55:09.183Z,1.20
2018-09-01T14:57:36.813Z,1.60
2018-09-01T15:00:05.312Z,1.77
2018-09-01T15:02:32.832Z,1.70
2018-09-01T15:05:00.493Z,1.20
2018-09-01T15:07:28.001Z,1.53
2018-09-01T15:09:55.670Z,1.90
2018-09-01T15:12:23.343Z,1.77
2018-09-01T15:14:51.023Z,2.00
2018-09-01T15:17:18.594Z,1.90
2018-09-01T15:19:46.241Z,2.00
2018-09-01T15:22:13.836Z,4.60
2018-09-01T15:24:41.446Z,2.40
2018-09-01T15:27:09.000Z,2.70
2018-09-01T15:29:36.675Z,2.83
2018-09-01T15:32:04.372Z,4.47
2018-09-01T15:34:32.326Z,4.20
2018-09-01T15:36:59.979Z,3.10
2018-09-01T15:39:27.514Z,4.17
2018-09-01T15:41:55.119Z,3.53
2018-09-01T15:44:22.777Z,1.93
2018-09-01T15:46:50.368Z,2.77
2018-09-01T15:49:17.952Z,1.53
2018-09-01T15:51:45.538Z,2.97
2018-09-01T15:54:13.093Z,4.87
2018-09-01T15:56:40.712Z,12.20
2018-09-01T15:59:08.333Z,5.73
2018-09-01T16:01:35.906Z,2.90
2018-09-01T16:04:03.475Z,4.53
2018-09-01T16:06:31.062Z,3.80
2018-09-01T16:08:58.648Z,3.47
2018-09-01T16:11:26.420Z,6.43
2018-09-01T16:13:53.957Z,4.07
2018-09-01T16:16:21.563Z,5.50
2018-09-01T16:18:49.242Z,5.13
2018-09-01T16:21:16.816Z,4.17
2018-09-01T16:23:44.369Z,3.63
2018-09-01T16:26:11.917Z,3.30
2018-09-01T16:28:39.495Z,2.20
2018-09-01T16:31:07.147Z,2.83
2018-09-01T16:33:34.708Z,2.23
2018-09-01T16:36:02.370Z,1.80
2018-09-01T16:38:29.980Z,2.00
2018-09-01T16:40:57.584Z,2.33
2018-09-01T16:43:25.213Z,2.53
2018-09-01T16:45:52.776Z,3.17
2018-09-01T16:48:20.326Z,2.27
2018-09-01T16:50:47.917Z,4.13
2018-09-01T16:53:15.531Z,2.90
2018-09-01T16:55:43.126Z,3.00
2018-09-01T16:58:10.719Z,2.17
2018-09-01T17:00:38.417Z,3.20
2018-09-01T17:03:05.992Z,3.23
2018-09-01T17:05:33.566Z,2.60
2018-09-01T17:08:01.227Z,1.67
2018-09-01T17:10:28.856Z,1.97
2018-09-01T17:12:56.446Z,1.83
2018-09-01T17:15:24.252Z,1.70
2018-09-01T17:17:51.944Z,2.00
2018-09-01T17:20:19.558Z,1.70
2018-09-01T17:22:47.223Z,1.37
2018-09-01T17:25:14.856Z,2.10
2018-09-01T17:27:42.550Z,1.93
2018-09-01T17:30:10.135Z,1.60
2018-09-01T17:32:37.716Z,2.20
2018-09-01T17:35:05.380Z,1.17
2018-09-01T17:37:33.034Z,1.90
2018-09-01T17:40:01.415Z,2.00
2018-09-01T17:42:29.025Z,6.77
2018-09-01T17:44:56.655Z,2.10
2018-09-01T17:47:24.281Z,2.30
2018-09-01T17:49:51.912Z,1.50
2018-09-01T17:52:19.524Z,1.73
2018-09-01T17:54:47.190Z,1.63
2018-09-01T17:57:14.857Z,2.00
2018-09-01T17:59:42.451Z,2.33
2018-09-01T18:02:10.299Z,1.83
2018-09-01T18:04:37.944Z,1.70
2018-09-01T18:07:05.969Z,1.70
2018-09-01T18:09:33.536Z,2.07
2018-09-01T18:12:01.150Z,2.30
2018-09-01T18:14:28.738Z,2.50
2018-09-01T18:16:56.334Z,3.50
2018-09-01T18:19:23.964Z,3.40
2018-09-01T18:21:51.624Z,3.67
2018-09-01T18:24:19.213Z,3.43
2018-09-01T18:26:46.926Z,3.73
2018-09-01T18:29:14.524Z,2.13
2018-09-01T18:31:42.137Z,2.50
2018-09-01T18:34:09.726Z,3.07
2018-09-01T18:36:37.413Z,2.53
2018-09-01T18:39:06.649Z,2.13
2018-09-01T18:41:34.217Z,2.53
2018-09-01T18:44:01.842Z,2.07
2018-09-01T18:46:29.496Z,2.33
2018-09-01T18:48:57.044Z,1.90
2018-09-01T18:51:24.657Z,1.60
2018-09-01T18:53:52.318Z,1.50
2018-09-01T18:56:20.286Z,1.50
2018-09-01T18:58:47.878Z,1.10
2018-09-01T19:01:15.450Z,1.80
2018-09-01T19:03:43.109Z,2.20
2018-09-01T19:06:10.735Z,1.70
2018-09-01T19:08:45.211Z,2.03
2018-09-01T19:11:12.897Z,2.60
2018-09-01T19:13:40.508Z,2.33
2018-09-01T19:16:08.149Z,1.80
2018-09-01T19:18:36.109Z,2.07
2018-09-01T19:21:03.983Z,2.40
2018-09-01T19:23:31.601Z,1.80
2018-09-01T19:25:59.185Z,2.00
2018-09-01T19:28:26.780Z,2.40
2018-09-01T19:30:54.404Z,2.70
2018-09-01T19:33:22.026Z,2.00
2018-09-01T19:35:50.078Z,2.10
2018-09-01T19:38:17.729Z,1.77
2018-09-01T19:40:45.468Z,1.50
2018-09-01T19:43:13.166Z,1.77
2018-09-01T19:45:41.045Z,2.60
2018-09-01T19:48:08.388Z,2.50
2018-09-01T19:50:36.042Z,2.63
2018-09-01T19:53:04.052Z,1.87
2018-09-01T19:55:31.674Z,2.30
2018-09-01T19:57:59.219Z,1.93
2018-09-01T20:00:26.806Z,2.27
2018-09-01T20:02:54.506Z,2.07
2018-09-01T20:05:22.284Z,2.40
2018-09-01T20:07:50.102Z,1.93
2018-09-01T20:10:17.770Z,1.80
2018-09-01T20:12:45.370Z,2.20
2018-09-01T20:15:12.921Z,2.17
2018-09-01T20:17:40.499Z,1.97
2018-09-01T20:20:08.644Z,1.90
2018-09-01T20:22:36.250Z,2.20
2018-09-01T20:25:03.927Z,2.00
2018-09-01T20:27:31.548Z,2.13
2018-09-01T20:29:59.163Z,1.83
2018-09-01T20:32:26.790Z,2.00
2018-09-01T20:34:58.912Z,4.87
2018-09-01T20:37:26.541Z,3.90
2018-09-01T20:39:54.168Z,2.43
2018-09-01T20:42:21.756Z,2.20
2018-09-01T20:44:49.349Z,2.47
2018-09-01T20:47:16.929Z,1.80
2018-09-01T20:49:44.501Z,1.90
2018-09-01T20:52:12.092Z,2.67
2018-09-01T20:54:39.658Z,2.13
2018-09-01T20:57:07.260Z,2.77
2018-09-01T20:59:34.815Z,2.07
2018-09-01T21:02:02.460Z,2.43
2018-09-01T21:04:30.047Z,1.90
2018-09-01T21:06:57.659Z,2.70
2018-09-01T21:09:25.225Z,1.87
2018-09-01T21:11:52.783Z,2.13
2018-09-01T21:14:20.410Z,1.80
2018-09-01T21:16:47.964Z,2.13
2018-09-01T21:19:15.594Z,2.10
2018-09-01T21:21:43.201Z,2.40
2018-09-01T21:24:11.356Z,2.47
2018-09-01T21:26:39.012Z,2.23
2018-09-01T21:29:07.200Z,4.83
2018-09-01T21:31:34.781Z,8.30
2018-09-01T21:34:02.416Z,3.67
2018-09-01T21:36:29.972Z,3.07
2018-09-01T21:38:57.529Z,4.83
2018-09-01T21:41:25.135Z,11.40
2018-09-01T21:43:52.694Z,13.23
2018-09-01T21:46:20.215Z,8.67
2018-09-01T21:48:47.798Z,4.77
2018-09-01T21:51:15.371Z,3.30
2018-09-01T21:53:42.948Z,3.13
2018-09-01T21:56:10.632Z,2.20
2018-09-01T21:58:38.184Z,2.10
2018-09-01T22:01:11.699Z,1.93
2018-09-01T22:03:44.899Z,2.37
2018-09-01T22:06:12.471Z,2.20
2018-09-01T22:08:40.066Z,2.10
2018-09-01T22:11:07.583Z,2.77
2018-09-01T22:13:35.132Z,2.53
2018-09-01T22:16:02.678Z,2.10
2018-09-01T22:18:30.241Z,1.77
2018-09-01T22:20:57.802Z,3.00
2018-09-01T22:23:25.483Z,2.20
2018-09-01T22:25:53.047Z,2.17
2018-09-01T22:28:21.071Z,2.30
2018-09-01T22:30:48.639Z,2.17
2018-09-01T22:33:16.183Z,2.67
2018-09-01T22:35:44.007Z,1.87
2018-09-01T22:38:11.626Z,2.30
2018-09-01T22:40:39.217Z,2.77
2018-09-01T22:43:06.901Z,2.50
2018-09-01T22:45:34.573Z,2.47
2018-09-01T22:48:02.157Z,2.73
2018-09-01T22:50:29.929Z,2.90
2018-09-01T22:52:57.473Z,1.90
2018-09-01T22:55:25.149Z,2.10
2018-09-01T22:57:52.676Z,2.17
2018-09-01T23:00:20.273Z,2.20
2018-09-01T23:02:47.876Z,2.60
2018-09-01T23:05:15.410Z,2.23
2018-09-01T23:07:42.975Z,4.80
2018-09-01T23:10:10.565Z,3.47
2018-09-01T23:12:38.256Z,3.50
2018-09-01T23:15:05.840Z,4.00
2018-09-01T23:17:33.406Z,3.40
2018-09-01T23:20:01.017Z,3.43
2018-09-01T23:22:28.837Z,3.00
2018-09-01T23:24:56.444Z,2.47
2018-09-01T23:27:24.081Z,3.20
2018-09-01T23:29:51.715Z,2.47
2018-09-01T23:32:19.273Z,2.50
2018-09-01T23:34:46.808Z,2.80
2018-09-01T23:37:14.338Z,2.70
2018-09-01T23:39:41.864Z,2.70
2018-09-01T23:42:09.431Z,2.73
2018-09-01T23:44:36.945Z,2.47
2018-09-01T23:47:04.492Z,3.20
2018-09-01T23:49:32.084Z,2.67
2018-09-01T23:51:59.612Z,2.93
2018-09-01T23:54:27.160Z,3.03
2018-09-01T23:56:54.694Z,2.90
2018-09-01T23:59:22.398Z,3.63
